createdAt,value
2022-07-26T00:00:12.509Z,93544.16
2022-07-26T00:01:09.284Z,93548.66
2022-07-26T00:02:06.279Z,93550.28
2022-07-26T00:03:03.027Z,93518.78
2022-07-26T00:04:00.449Z,93548.41
2022-07-26T00:04:57.093Z,93534.91
2022-07-26T00:05:53.743Z,93546.28
2022-07-26T00:06:50.455Z,93540.97
2022-07-26T00:07:47.161Z,93532.75
2022-07-26T00:08:44.438Z,93539.88
2022-07-26T00:09:46.362Z,93537.59
2022-07-26T00:10:49.249Z,93542.44
2022-07-26T00:11:45.929Z,93542.13
2022-07-26T00:12:42.580Z,93523.63
2022-07-26T00:13:39.651Z,93534.69
2022-07-26T00:14:37.014Z,93534.56
2022-07-26T00:15:33.719Z,93542.03
2022-07-26T00:16:30.558Z,93540.94
2022-07-26T00:17:27.272Z,93535.69
2022-07-26T00:18:24.418Z,93542.78
2022-07-26T00:19:21.217Z,93546.94
2022-07-26T00:20:17.903Z,93541.25
2022-07-26T00:21:14.617Z,93520.34
2022-07-26T00:22:30.091Z,93545.03
2022-07-26T00:23:26.745Z,93534.84
2022-07-26T00:24:23.379Z,93536.50
2022-07-26T00:25:20.220Z,93534.03
2022-07-26T00:26:16.901Z,93509.94
2022-07-26T00:27:13.630Z,93536.50
2022-07-26T00:28:10.253Z,93533.78
2022-07-26T00:29:08.835Z,93530.00
2022-07-26T00:30:10.611Z,93531.56
2022-07-26T00:31:08.947Z,93529.00
2022-07-26T00:32:06.194Z,93527.81
2022-07-26T00:33:02.837Z,93527.34
2022-07-26T00:33:59.492Z,93528.41
2022-07-26T00:34:56.223Z,93529.59
2022-07-26T00:35:52.864Z,93527.09
2022-07-26T00:36:49.479Z,93536.25
2022-07-26T00:37:46.718Z,93524.53
2022-07-26T00:38:43.357Z,93517.78
2022-07-26T00:39:40.077Z,93521.13
2022-07-26T00:40:36.887Z,93532.72
2022-07-26T00:41:33.511Z,93527.97
2022-07-26T00:42:30.266Z,93538.16
2022-07-26T00:43:27.218Z,93508.78
2022-07-26T00:44:23.923Z,93496.97
2022-07-26T00:45:20.878Z,93521.66
2022-07-26T00:46:17.609Z,93526.28
2022-07-26T00:47:15.276Z,93525.78
2022-07-26T00:48:11.947Z,93518.47
2022-07-26T00:49:09.255Z,93524.25
2022-07-26T00:50:10.251Z,93529.69
2022-07-26T00:51:06.965Z,93499.13
2022-07-26T00:52:06.118Z,93519.28
2022-07-26T00:53:02.921Z,93526.03
2022-07-26T00:53:59.538Z,93526.97
2022-07-26T00:54:56.330Z,93527.00
2022-07-26T00:55:53.175Z,93532.44
2022-07-26T00:56:54.988Z,93525.44
2022-07-26T00:57:52.019Z,93529.72
2022-07-26T00:58:48.892Z,93527.22
2022-07-26T00:59:45.535Z,93531.75
2022-07-26T01:00:42.310Z,93535.25
2022-07-26T01:01:39.304Z,93522.91
2022-07-26T01:02:36.248Z,93526.56
2022-07-26T01:03:39.412Z,93534.59
2022-07-26T01:04:36.518Z,93532.97
2022-07-26T01:05:33.545Z,93543.38
2022-07-26T01:06:30.298Z,93530.25
2022-07-26T01:07:26.975Z,93533.25
2022-07-26T01:08:23.630Z,93531.59
2022-07-26T01:09:20.439Z,93507.72
2022-07-26T01:10:17.255Z,93510.69
2022-07-26T01:11:13.942Z,93529.38
2022-07-26T01:12:11.236Z,93531.84
2022-07-26T01:13:08.174Z,93533.59
2022-07-26T01:14:05.118Z,93534.22
2022-07-26T01:15:02.277Z,93540.88
2022-07-26T01:15:58.934Z,93538.84
2022-07-26T01:16:55.752Z,93529.38
2022-07-26T01:17:52.469Z,93507.72
2022-07-26T01:18:49.205Z,93534.59
2022-07-26T01:19:45.841Z,93536.16
2022-07-26T01:20:44.346Z,93544.78
2022-07-26T01:21:41.171Z,93536.00
2022-07-26T01:22:37.966Z,93529.81
2022-07-26T01:23:35.164Z,93533.91
2022-07-26T01:24:31.812Z,93540.75
2022-07-26T01:25:33.298Z,93535.72
2022-07-26T01:26:40.318Z,93534.38
2022-07-26T01:27:39.529Z,93541.00
2022-07-26T01:28:40.784Z,93534.41
2022-07-26T01:29:37.543Z,93532.94
2022-07-26T01:30:34.285Z,93532.25
2022-07-26T01:31:31.182Z,93531.59
2022-07-26T01:32:27.831Z,93539.03
2022-07-26T01:33:28.100Z,93528.50
2022-07-26T01:34:24.946Z,93533.38
2022-07-26T01:35:21.618Z,93532.38
2022-07-26T01:36:19.031Z,93528.22
2022-07-26T01:37:15.670Z,93525.03
2022-07-26T01:38:14.024Z,93518.63
2022-07-26T01:39:10.847Z,93528.38
2022-07-26T01:40:08.309Z,93532.47
2022-07-26T01:41:06.141Z,93490.38
2022-07-26T01:42:03.393Z,93527.63
2022-07-26T01:43:00.181Z,93528.25
2022-07-26T01:43:56.993Z,93526.41
2022-07-26T01:44:53.706Z,93523.66
2022-07-26T01:45:50.705Z,93526.03
2022-07-26T01:46:47.497Z,93524.91
2022-07-26T01:47:45.096Z,93514.41
2022-07-26T01:48:41.960Z,93529.75
2022-07-26T01:49:38.722Z,93531.66
2022-07-26T01:50:37.093Z,93531.34
2022-07-26T01:51:34.250Z,93533.88
2022-07-26T01:52:31.028Z,93528.31
2022-07-26T01:53:27.851Z,93521.59
2022-07-26T01:54:24.770Z,93532.78
2022-07-26T01:55:21.660Z,93528.84
2022-07-26T01:56:18.346Z,93493.38
2022-07-26T01:57:15.127Z,93534.66
2022-07-26T01:58:11.778Z,93509.19
2022-07-26T01:59:08.398Z,93534.34
2022-07-26T02:00:06.757Z,93485.50
2022-07-26T02:01:03.478Z,93538.06
2022-07-26T02:02:00.229Z,93529.25
2022-07-26T02:02:57.062Z,93545.22
2022-07-26T02:03:53.732Z,93544.63
2022-07-26T02:04:59.406Z,93546.75
2022-07-26T02:05:56.080Z,93542.44
2022-07-26T02:06:52.680Z,93537.16
2022-07-26T02:07:50.691Z,93539.06
2022-07-26T02:08:47.338Z,93547.13
2022-07-26T02:09:44.113Z,93543.25
2022-07-26T02:10:59.780Z,93547.88
2022-07-26T02:11:56.435Z,93548.25
2022-07-26T02:12:53.059Z,93545.03
2022-07-26T02:13:53.009Z,93545.41
2022-07-26T02:14:51.899Z,93550.34
2022-07-26T02:15:48.842Z,93556.09
2022-07-26T02:16:45.496Z,93554.44
2022-07-26T02:17:42.826Z,93540.59
2022-07-26T02:18:40.574Z,93555.59
2022-07-26T02:19:37.319Z,93546.81
2022-07-26T02:20:34.037Z,93542.88
2022-07-26T02:21:30.675Z,93551.41
2022-07-26T02:22:27.369Z,93546.84
2022-07-26T02:23:25.116Z,93543.63
2022-07-26T02:24:21.803Z,93548.81
2022-07-26T02:25:18.490Z,93539.63
2022-07-26T02:26:15.201Z,93541.28
2022-07-26T02:27:12.131Z,93545.69
2022-07-26T02:28:08.793Z,93547.72
2022-07-26T02:29:05.850Z,93546.72
2022-07-26T02:30:02.481Z,93550.75
2022-07-26T02:30:59.242Z,93545.09
2022-07-26T02:31:57.430Z,93547.06
2022-07-26T02:32:54.227Z,93540.78
2022-07-26T02:33:50.850Z,93548.13
2022-07-26T02:34:47.568Z,93547.69
2022-07-26T02:35:44.907Z,93546.69
2022-07-26T02:36:41.857Z,93535.56
2022-07-26T02:37:43.771Z,93544.72
2022-07-26T02:38:40.683Z,93543.09
2022-07-26T02:39:37.385Z,93546.44
2022-07-26T02:40:35.227Z,93545.25
2022-07-26T02:41:32.003Z,93546.50
2022-07-26T02:42:29.230Z,93532.81
2022-07-26T02:43:26.925Z,93540.75
2022-07-26T02:44:25.520Z,93523.75
2022-07-26T02:45:22.342Z,93553.44
2022-07-26T02:46:19.023Z,93548.69
2022-07-26T02:47:15.689Z,93549.72
2022-07-26T02:48:12.354Z,93557.63
2022-07-26T02:49:09.842Z,93558.97
2022-07-26T02:50:07.077Z,93556.09
2022-07-26T02:51:03.962Z,93559.41
2022-07-26T02:52:00.563Z,93518.19
2022-07-26T02:52:57.655Z,93551.81
2022-07-26T02:53:54.282Z,93552.31
2022-07-26T02:54:50.963Z,93553.81
2022-07-26T02:55:47.551Z,93556.59
2022-07-26T02:56:44.142Z,93550.72
2022-07-26T02:57:46.207Z,93554.69
2022-07-26T02:58:43.529Z,93555.31
2022-07-26T02:59:40.328Z,93548.81
2022-07-26T03:00:36.976Z,93557.81
2022-07-26T03:01:35.484Z,93552.81
2022-07-26T03:02:32.274Z,93551.59
2022-07-26T03:03:28.970Z,93547.78
2022-07-26T03:04:25.676Z,93560.72
2022-07-26T03:05:22.886Z,93555.47
2022-07-26T03:06:20.053Z,93531.00
2022-07-26T03:07:16.760Z,93549.88
2022-07-26T03:08:13.375Z,93558.19
2022-07-26T03:09:10.031Z,93553.63
2022-07-26T03:10:07.678Z,93533.41
2022-07-26T03:11:09.003Z,93562.63
2022-07-26T03:12:08.436Z,93556.53
2022-07-26T03:13:05.122Z,93558.25
2022-07-26T03:14:02.020Z,93566.41
2022-07-26T03:14:58.941Z,93549.94
2022-07-26T03:15:55.725Z,93556.63
2022-07-26T03:16:52.426Z,93566.16
2022-07-26T03:17:50.037Z,93566.97
2022-07-26T03:18:46.812Z,93574.03
2022-07-26T03:19:43.599Z,93558.34
2022-07-26T03:20:41.813Z,93560.63
2022-07-26T03:21:38.602Z,93567.50
2022-07-26T03:22:35.284Z,93564.81
2022-07-26T03:23:33.573Z,93561.06
2022-07-26T03:24:30.431Z,93566.88
2022-07-26T03:25:27.150Z,93571.50
2022-07-26T03:26:23.820Z,93569.66
2022-07-26T03:27:20.647Z,93569.19
2022-07-26T03:28:19.488Z,93568.22
2022-07-26T03:29:16.517Z,93568.72
2022-07-26T03:30:14.007Z,93583.88
2022-07-26T03:31:11.843Z,93473.72
2022-07-26T03:32:08.965Z,93572.69
2022-07-26T03:33:05.615Z,93572.56
2022-07-26T03:34:03.419Z,93574.97
2022-07-26T03:35:00.203Z,93556.09
2022-07-26T03:35:56.831Z,93550.50
2022-07-26T03:36:53.471Z,93568.09
2022-07-26T03:37:50.087Z,93570.56
2022-07-26T03:38:46.742Z,93573.09
2022-07-26T03:39:43.382Z,93570.44
2022-07-26T03:40:40.001Z,93579.19
2022-07-26T03:41:36.707Z,93567.78
2022-07-26T03:42:33.329Z,93574.69
2022-07-26T03:43:30.242Z,93574.19
2022-07-26T03:44:27.500Z,93566.00
2022-07-26T03:45:24.122Z,93568.91
2022-07-26T03:46:20.798Z,93568.09
2022-07-26T03:47:17.526Z,93567.34
2022-07-26T03:48:14.263Z,93564.16
2022-07-26T03:49:16.138Z,93569.91
2022-07-26T03:50:13.878Z,93565.00
2022-07-26T03:51:10.659Z,93551.09
2022-07-26T03:52:07.343Z,93565.63
2022-07-26T03:53:04.903Z,93569.25
2022-07-26T03:54:01.624Z,93566.53
2022-07-26T03:54:58.608Z,93572.78
2022-07-26T03:56:13.903Z,93567.94
2022-07-26T03:57:11.776Z,93562.50
2022-07-26T03:58:09.154Z,93543.63
2022-07-26T03:59:08.731Z,93560.34
2022-07-26T04:00:06.071Z,93551.28
2022-07-26T04:01:02.735Z,93544.28
2022-07-26T04:01:59.454Z,93539.69
2022-07-26T04:02:56.303Z,93538.19
2022-07-26T04:03:53.006Z,93554.97
2022-07-26T04:04:49.688Z,93555.44
2022-07-26T04:05:48.829Z,93556.78
2022-07-26T04:06:47.605Z,93559.31
2022-07-26T04:07:51.527Z,93559.31
2022-07-26T04:08:50.341Z,93549.13
2022-07-26T04:09:46.957Z,93558.69
2022-07-26T04:10:53.334Z,93559.78
2022-07-26T04:11:50.192Z,93566.72
2022-07-26T04:12:46.851Z,93540.47
2022-07-26T04:13:43.471Z,93554.75
2022-07-26T04:14:42.564Z,93554.00
2022-07-26T04:15:39.462Z,93556.06
2022-07-26T04:16:40.077Z,93558.69
2022-07-26T04:17:40.996Z,93559.78
2022-07-26T04:18:38.368Z,93545.00
2022-07-26T04:19:39.724Z,93557.31
2022-07-26T04:20:36.823Z,93554.94
2022-07-26T04:21:33.764Z,93542.34
2022-07-26T04:22:30.397Z,93562.56
2022-07-26T04:23:27.140Z,93552.56
2022-07-26T04:24:25.714Z,93552.31
2022-07-26T04:25:22.666Z,93557.41
2022-07-26T04:26:21.280Z,93553.06
2022-07-26T04:27:17.932Z,93547.94
2022-07-26T04:28:14.558Z,93555.88
2022-07-26T04:29:12.773Z,93554.84
2022-07-26T04:30:14.781Z,93558.75
2022-07-26T04:31:12.742Z,93549.16
2022-07-26T04:32:09.417Z,93551.78
2022-07-26T04:33:06.607Z,93551.44
2022-07-26T04:34:03.262Z,93549.31
2022-07-26T04:35:00.009Z,93542.78
2022-07-26T04:35:56.625Z,93549.66
2022-07-26T04:36:53.385Z,93544.56
2022-07-26T04:37:50.038Z,93548.47
2022-07-26T04:38:46.811Z,93552.50
2022-07-26T04:39:43.464Z,93533.44
2022-07-26T04:40:41.108Z,93549.56
2022-07-26T04:41:38.407Z,93540.78
2022-07-26T04:42:35.507Z,93550.56
2022-07-26T04:43:32.262Z,93550.03
2022-07-26T04:44:28.924Z,93548.72
2022-07-26T04:45:25.697Z,93544.56
2022-07-26T04:46:22.505Z,93546.25
2022-07-26T04:47:19.205Z,93547.31
2022-07-26T04:48:16.400Z,93548.66
2022-07-26T04:49:13.975Z,93551.78
2022-07-26T04:50:13.625Z,93553.38
2022-07-26T04:51:12.108Z,93547.59
2022-07-26T04:52:08.864Z,93546.78
2022-07-26T04:53:05.575Z,93526.38
2022-07-26T04:54:02.207Z,93527.19
2022-07-26T04:54:58.850Z,93554.59
2022-07-26T04:55:55.484Z,93545.09
2022-07-26T04:56:52.223Z,93550.78
2022-07-26T04:57:49.898Z,93546.53
2022-07-26T04:58:46.570Z,93550.31
2022-07-26T04:59:43.243Z,93555.78
2022-07-26T05:01:56.629Z,93548.16
2022-07-26T05:02:58.611Z,93531.94
2022-07-26T05:03:55.401Z,93547.69
2022-07-26T05:04:52.035Z,93553.50
2022-07-26T05:05:48.685Z,93553.53
2022-07-26T05:06:45.408Z,93547.69
2022-07-26T05:07:44.218Z,93551.28
2022-07-26T05:08:43.300Z,93550.44
2022-07-26T05:09:39.969Z,93546.84
2022-07-26T05:10:37.963Z,93546.03
2022-07-26T05:11:34.630Z,93540.00
2022-07-26T05:12:31.339Z,93546.00
2022-07-26T05:13:29.942Z,93541.34
2022-07-26T05:14:27.373Z,93544.22
2022-07-26T05:15:25.631Z,93541.13
2022-07-26T05:16:32.095Z,93520.78
2022-07-26T05:17:28.876Z,93472.34
2022-07-26T05:18:26.608Z,93538.97
2022-07-26T05:19:23.214Z,93545.28
2022-07-26T05:20:19.921Z,93536.59
2022-07-26T05:21:18.002Z,93544.88
2022-07-26T05:22:14.649Z,93538.56
2022-07-26T05:23:11.674Z,93537.78
2022-07-26T05:24:09.299Z,93533.88
2022-07-26T05:25:07.162Z,93533.63
2022-07-26T05:26:03.864Z,93533.22
2022-07-26T05:27:00.575Z,93538.25
2022-07-26T05:27:57.269Z,93537.06
2022-07-26T05:28:54.474Z,93531.53
2022-07-26T05:29:51.108Z,93536.13
2022-07-26T05:30:47.827Z,93533.09
2022-07-26T05:31:44.513Z,93531.22
2022-07-26T05:32:41.276Z,93535.75
2022-07-26T05:33:37.942Z,93532.47
2022-07-26T05:34:34.695Z,93535.09
2022-07-26T05:35:31.395Z,93524.53
2022-07-26T05:36:28.630Z,93521.63
2022-07-26T05:37:25.288Z,93529.34
2022-07-26T05:38:21.936Z,93535.94
2022-07-26T05:39:18.568Z,93519.22
2022-07-26T05:40:15.518Z,93530.13
2022-07-26T05:41:12.412Z,93532.13
2022-07-26T05:42:09.027Z,93535.66
2022-07-26T05:43:05.726Z,93536.22
2022-07-26T05:44:03.281Z,93529.81
2022-07-26T05:44:59.919Z,93536.56
2022-07-26T05:45:58.264Z,93535.47
2022-07-26T05:46:54.947Z,93505.84
2022-07-26T05:47:52.851Z,93529.38
2022-07-26T05:48:49.688Z,93520.72
2022-07-26T05:49:46.445Z,93502.47
2022-07-26T05:50:43.195Z,93532.97
2022-07-26T05:51:39.889Z,93511.94
2022-07-26T05:52:36.541Z,93536.03
2022-07-26T05:53:33.203Z,93534.03
2022-07-26T05:54:29.804Z,93521.66
2022-07-26T05:55:26.661Z,93534.44
2022-07-26T05:56:23.413Z,93534.44
2022-07-26T05:57:20.112Z,93532.66
2022-07-26T05:58:16.780Z,93526.31
2022-07-26T05:59:13.667Z,93526.16
2022-07-26T06:00:11.027Z,93524.84
2022-07-26T06:01:07.699Z,93527.06
2022-07-26T06:02:04.516Z,93523.69
2022-07-26T06:03:21.135Z,93528.78
2022-07-26T06:04:17.874Z,93522.25
2022-07-26T06:05:15.977Z,93523.81
2022-07-26T06:06:12.680Z,93494.22
2022-07-26T06:07:09.414Z,93526.69
2022-07-26T06:08:06.177Z,93522.28
2022-07-26T06:09:03.736Z,93517.94
2022-07-26T06:10:00.610Z,93511.91
2022-07-26T06:10:57.875Z,93514.38
2022-07-26T06:11:54.544Z,93511.00
2022-07-26T06:12:51.156Z,93516.50
2022-07-26T06:13:48.159Z,93515.50
2022-07-26T06:14:44.844Z,93512.66
2022-07-26T06:15:42.413Z,93510.03
2022-07-26T06:16:39.085Z,93518.53
2022-07-26T06:17:40.735Z,93511.44
2022-07-26T06:18:37.386Z,93517.78
2022-07-26T06:19:34.334Z,93518.13
2022-07-26T06:20:31.659Z,93486.06
2022-07-26T06:21:28.293Z,93513.44
2022-07-26T06:22:25.521Z,93513.81
2022-07-26T06:23:33.650Z,93508.69
2022-07-26T06:24:31.528Z,93477.63
2022-07-26T06:25:28.151Z,93508.47
2022-07-26T06:26:24.818Z,93520.25
2022-07-26T06:27:21.457Z,93507.47
2022-07-26T06:28:18.221Z,93510.16
2022-07-26T06:29:14.924Z,93507.63
2022-07-26T06:30:12.236Z,93504.94
2022-07-26T06:31:08.931Z,93501.31
2022-07-26T06:32:05.939Z,93506.34
2022-07-26T06:33:03.200Z,93503.44
2022-07-26T06:34:00.049Z,93500.56
2022-07-26T06:34:56.721Z,93506.72
2022-07-26T06:35:53.361Z,93504.91
2022-07-26T06:36:50.022Z,93509.81
2022-07-26T06:37:46.662Z,93510.34
2022-07-26T06:38:43.298Z,93493.59
2022-07-26T06:39:39.977Z,93502.69
2022-07-26T06:40:36.813Z,93502.78
2022-07-26T06:41:33.425Z,93490.34
2022-07-26T06:42:30.564Z,93504.69
2022-07-26T06:43:27.230Z,93512.03
2022-07-26T06:44:23.928Z,93503.88
2022-07-26T06:45:20.631Z,93493.41
2022-07-26T06:46:17.330Z,93506.34
2022-07-26T06:47:14.016Z,93506.84
2022-07-26T06:48:10.966Z,93499.94
2022-07-26T06:49:07.829Z,93502.09
2022-07-26T06:50:05.162Z,93501.59
2022-07-26T06:51:01.771Z,93504.00
2022-07-26T06:51:58.446Z,93505.91
2022-07-26T06:52:55.187Z,93498.06
2022-07-26T06:53:51.878Z,93499.41
2022-07-26T06:54:48.943Z,93501.09
2022-07-26T06:55:45.952Z,93499.88
2022-07-26T06:56:42.698Z,93481.31
2022-07-26T06:57:40.268Z,93500.13
2022-07-26T06:58:46.977Z,93504.72
2022-07-26T06:59:43.745Z,93501.81
2022-07-26T07:00:40.494Z,93490.03
2022-07-26T07:01:57.778Z,93500.84
2022-07-26T07:02:53.882Z,93493.94
2022-07-26T07:03:50.682Z,93500.53
2022-07-26T07:04:47.431Z,93496.16
2022-07-26T07:05:49.468Z,93490.94
2022-07-26T07:06:46.791Z,93482.91
2022-07-26T07:07:46.202Z,93494.97
2022-07-26T07:08:43.019Z,93492.00
2022-07-26T07:09:41.982Z,93493.81
2022-07-26T07:10:39.425Z,93494.66
2022-07-26T07:11:36.077Z,93487.06
2022-07-26T07:12:32.736Z,93492.78
2022-07-26T07:13:29.378Z,93491.63
2022-07-26T07:14:26.025Z,93497.88
2022-07-26T07:15:22.684Z,93495.69
2022-07-26T07:16:19.399Z,93492.38
2022-07-26T07:17:20.630Z,93479.81
2022-07-26T07:18:17.403Z,93504.13
2022-07-26T07:19:14.124Z,93503.06
2022-07-26T07:20:11.475Z,93492.38
2022-07-26T07:21:08.164Z,93489.53
2022-07-26T07:22:05.745Z,93494.56
2022-07-26T07:23:02.423Z,93488.25
2022-07-26T07:23:59.195Z,93498.97
2022-07-26T07:24:55.839Z,93490.72
2022-07-26T07:25:52.470Z,93496.78
2022-07-26T07:26:50.301Z,93495.41
2022-07-26T07:27:47.743Z,93491.84
2022-07-26T07:28:44.407Z,93489.53
2022-07-26T07:29:42.135Z,93490.72
2022-07-26T07:30:39.985Z,93493.19
2022-07-26T07:31:48.709Z,93492.66
2022-07-26T07:32:46.053Z,93473.69
2022-07-26T07:33:52.896Z,93494.03
2022-07-26T07:34:50.739Z,93493.53
2022-07-26T07:35:47.348Z,93495.72
2022-07-26T07:36:44.347Z,93504.47
2022-07-26T07:37:52.772Z,93495.31
2022-07-26T07:38:50.635Z,93477.53
2022-07-26T07:39:50.631Z,93496.22
2022-07-26T07:40:47.669Z,93488.53
2022-07-26T07:41:46.145Z,93488.53
2022-07-26T07:42:42.843Z,93492.38
2022-07-26T07:43:39.658Z,93490.75
2022-07-26T07:44:36.386Z,93493.78
2022-07-26T07:45:33.612Z,93491.84
2022-07-26T07:46:30.333Z,93489.91
2022-07-26T07:47:26.941Z,93480.44
2022-07-26T07:48:23.586Z,93489.56
2022-07-26T07:49:20.334Z,93492.94
2022-07-26T07:50:17.144Z,93489.91
2022-07-26T07:51:15.133Z,93475.06
2022-07-26T07:52:12.650Z,93487.44
2022-07-26T07:53:09.394Z,93486.34
2022-07-26T07:54:06.410Z,93488.84
2022-07-26T07:55:28.664Z,93487.16
2022-07-26T07:56:21.197Z,93448.50
2022-07-26T07:57:18.268Z,93490.50
2022-07-26T07:58:19.724Z,93484.53
2022-07-26T07:59:16.402Z,93487.91
2022-07-26T08:00:16.107Z,93492.41
2022-07-26T08:01:13.340Z,93485.78
2022-07-26T08:02:12.905Z,93480.66
2022-07-26T08:03:09.661Z,93495.16
2022-07-26T08:04:06.439Z,93493.69
2022-07-26T08:05:13.897Z,93489.16
2022-07-26T08:06:11.384Z,93468.44
2022-07-26T08:07:08.099Z,93458.00
2022-07-26T08:08:05.355Z,93477.81
2022-07-26T08:09:05.530Z,93483.59
2022-07-26T08:10:03.846Z,93484.78
2022-07-26T08:11:00.454Z,93483.09
2022-07-26T08:11:57.102Z,93479.06
2022-07-26T08:12:53.735Z,93483.91
2022-07-26T08:13:50.452Z,93464.25
2022-07-26T08:14:47.102Z,93472.69
2022-07-26T08:15:43.891Z,93473.28
2022-07-26T08:16:40.921Z,93475.97
2022-07-26T08:17:41.753Z,93474.22
2022-07-26T08:18:55.791Z,93477.69
2022-07-26T08:19:58.294Z,93466.38
2022-07-26T08:20:57.560Z,93479.41
2022-07-26T08:21:55.115Z,93476.97
2022-07-26T08:22:52.921Z,93455.69
2022-07-26T08:23:49.751Z,93474.47
2022-07-26T08:24:46.988Z,93471.38
2022-07-26T08:25:55.661Z,93468.44
2022-07-26T08:26:54.153Z,93461.63
2022-07-26T08:28:03.245Z,93467.34
2022-07-26T08:29:00.667Z,93445.19
2022-07-26T08:29:57.380Z,93468.63
2022-07-26T08:30:54.129Z,93466.53
2022-07-26T08:31:51.024Z,93462.69
2022-07-26T08:32:47.792Z,93472.81
2022-07-26T08:33:46.266Z,93461.28
2022-07-26T08:34:43.465Z,93459.66
2022-07-26T08:35:40.090Z,93463.81
2022-07-26T08:36:41.940Z,93453.81
2022-07-26T08:37:46.308Z,93459.34
2022-07-26T08:38:44.334Z,93468.50
2022-07-26T08:39:41.013Z,93462.13
2022-07-26T08:40:37.943Z,93455.44
2022-07-26T08:41:34.613Z,93466.75
2022-07-26T08:42:32.021Z,93462.81
2022-07-26T08:43:29.304Z,93455.41
2022-07-26T08:44:26.405Z,93444.41
2022-07-26T08:45:25.204Z,93451.00
2022-07-26T08:46:26.583Z,93457.34
2022-07-26T08:47:37.873Z,93463.53
2022-07-26T08:48:39.631Z,93461.81
2022-07-26T08:49:36.581Z,93439.47
2022-07-26T08:50:34.092Z,93461.78
2022-07-26T08:51:31.246Z,93458.03
2022-07-26T08:52:29.209Z,93459.94
2022-07-26T08:53:26.172Z,93464.72
2022-07-26T08:54:22.783Z,93455.47
2022-07-26T08:55:21.200Z,93452.63
2022-07-26T08:56:17.988Z,93462.97
2022-07-26T08:57:15.253Z,93465.88
2022-07-26T08:58:12.015Z,93465.94
2022-07-26T08:59:20.592Z,93462.72
2022-07-26T09:00:25.351Z,93461.94
2022-07-26T09:01:22.271Z,93464.38
2022-07-26T09:02:19.069Z,93464.25
2022-07-26T09:03:26.185Z,93459.97
2022-07-26T09:04:32.087Z,93463.56
2022-07-26T09:05:37.333Z,93459.38
2022-07-26T09:06:33.958Z,93465.03
2022-07-26T09:07:34.036Z,93458.28
2022-07-26T09:08:31.364Z,93461.28
2022-07-26T09:09:28.735Z,93441.00
2022-07-26T09:10:25.753Z,93455.06
2022-07-26T09:11:25.103Z,93466.06
2022-07-26T09:12:22.417Z,93446.25
2022-07-26T09:13:20.227Z,93453.69
2022-07-26T09:14:16.850Z,93416.06
2022-07-26T09:15:22.568Z,93452.03
2022-07-26T09:16:19.340Z,93454.53
2022-07-26T09:17:18.595Z,93448.38
2022-07-26T09:18:29.485Z,93454.59
2022-07-26T09:19:27.086Z,93447.91
2022-07-26T09:20:26.134Z,93447.31
2022-07-26T09:21:32.495Z,93451.19
2022-07-26T09:22:29.139Z,93451.00
2022-07-26T09:23:25.816Z,93448.28
2022-07-26T09:24:37.030Z,93451.47
2022-07-26T09:25:42.546Z,93453.34
2022-07-26T09:26:39.367Z,93424.78
2022-07-26T09:27:37.045Z,93452.03
2022-07-26T09:28:33.773Z,93451.78
2022-07-26T09:29:30.626Z,93447.31
2022-07-26T09:30:29.805Z,93447.38
2022-07-26T09:31:26.458Z,93455.84
2022-07-26T09:32:25.761Z,93447.63
2022-07-26T09:33:23.059Z,93443.03
2022-07-26T09:34:25.471Z,93453.19
2022-07-26T09:35:49.823Z,93449.59
2022-07-26T09:36:52.431Z,93427.66
2022-07-26T09:37:49.248Z,93423.25
2022-07-26T09:39:00.913Z,93441.97
2022-07-26T09:40:02.457Z,93440.41
2022-07-26T09:40:59.542Z,93438.53
2022-07-26T09:42:25.045Z,93425.13
2022-07-26T09:43:19.703Z,93444.59
2022-07-26T09:44:26.377Z,93436.06
2022-07-26T09:45:23.238Z,93430.41
2022-07-26T09:46:20.293Z,93436.75
2022-07-26T09:47:20.597Z,93440.97
2022-07-26T09:48:30.343Z,93439.25
2022-07-26T09:49:40.846Z,93435.69
2022-07-26T09:50:37.765Z,93431.97
2022-07-26T09:51:43.129Z,93410.56
2022-07-26T09:52:39.947Z,93424.09
2022-07-26T09:53:46.234Z,93411.34
2022-07-26T09:54:46.239Z,93426.06
2022-07-26T09:55:45.572Z,93433.38
2022-07-26T09:56:50.641Z,93428.28
2022-07-26T09:57:47.714Z,93430.28
2022-07-26T09:58:45.115Z,93414.00
2022-07-26T09:59:42.099Z,93430.38
2022-07-26T10:00:38.825Z,93418.72
2022-07-26T10:01:35.720Z,93430.13
2022-07-26T10:02:33.504Z,93416.22
2022-07-26T10:03:31.439Z,93421.41
2022-07-26T10:04:28.098Z,93398.59
2022-07-26T10:05:25.884Z,93416.84
2022-07-26T10:06:26.065Z,93419.97
2022-07-26T10:07:25.472Z,93423.97
2022-07-26T10:08:22.116Z,93417.47
2022-07-26T10:09:19.665Z,93423.56
2022-07-26T10:10:28.074Z,93415.06
2022-07-26T10:11:26.530Z,93403.38
2022-07-26T10:12:30.584Z,93416.16
2022-07-26T10:13:28.008Z,93398.13
2022-07-26T10:14:34.532Z,93416.31
2022-07-26T10:15:44.507Z,93421.63
2022-07-26T10:16:43.697Z,93410.63
2022-07-26T10:17:42.627Z,93412.22
2022-07-26T10:18:40.586Z,93416.97
2022-07-26T10:19:45.843Z,93413.81
2022-07-26T10:20:45.696Z,93409.97
2022-07-26T10:21:43.260Z,93408.63
2022-07-26T10:22:49.014Z,93404.81
2022-07-26T10:23:50.594Z,93403.34
2022-07-26T10:24:47.206Z,93413.41
2022-07-26T10:25:48.803Z,93402.72
2022-07-26T10:26:45.689Z,93405.78
2022-07-26T10:27:44.997Z,93400.97
2022-07-26T10:28:41.976Z,93395.94
2022-07-26T10:29:38.637Z,93377.84
2022-07-26T10:30:35.655Z,93400.69
2022-07-26T10:31:32.595Z,93399.03
2022-07-26T10:32:32.427Z,93400.78
2022-07-26T10:33:29.161Z,93393.53
2022-07-26T10:34:43.788Z,93402.13
2022-07-26T10:35:43.354Z,93391.34
2022-07-26T10:36:40.258Z,93389.03
2022-07-26T10:37:36.893Z,93383.94
2022-07-26T10:38:40.264Z,93394.38
2022-07-26T10:39:38.108Z,93394.59
2022-07-26T10:40:35.806Z,93389.41
2022-07-26T10:41:38.127Z,93386.00
2022-07-26T10:42:44.736Z,93386.09
2022-07-26T10:43:42.295Z,93378.06
2022-07-26T10:44:50.674Z,93370.72
2022-07-26T10:45:49.481Z,93368.25
2022-07-26T10:46:57.960Z,93374.66
2022-07-26T10:48:19.858Z,93378.81
2022-07-26T10:49:18.790Z,93368.81
2022-07-26T10:50:33.117Z,93370.03
2022-07-26T10:51:41.111Z,93375.97
2022-07-26T10:52:37.966Z,93380.56
2022-07-26T10:53:34.729Z,93369.16
2022-07-26T10:54:31.436Z,93369.16
2022-07-26T10:55:28.188Z,93378.97
2022-07-26T10:56:26.855Z,93372.19
2022-07-26T10:57:28.495Z,93360.50
2022-07-26T10:58:26.581Z,93367.41
2022-07-26T10:59:54.853Z,93374.91
2022-07-26T11:00:58.391Z,93361.56
2022-07-26T11:01:55.259Z,93360.19
2022-07-26T11:02:57.692Z,93363.34
2022-07-26T11:03:54.763Z,93360.75
2022-07-26T11:04:59.933Z,93348.72
2022-07-26T11:05:56.641Z,93357.78
2022-07-26T11:06:53.278Z,93357.28
2022-07-26T11:07:58.563Z,93346.63
2022-07-26T11:08:56.071Z,93358.94
2022-07-26T11:09:59.949Z,93365.28
2022-07-26T11:10:57.344Z,93361.34
2022-07-26T11:11:54.076Z,93343.53
2022-07-26T11:13:03.876Z,93353.03
2022-07-26T11:14:14.917Z,93325.94
2022-07-26T11:15:19.390Z,93342.31
2022-07-26T11:16:16.333Z,93345.06
2022-07-26T11:17:26.820Z,93333.88
2022-07-26T11:18:27.969Z,93336.44
2022-07-26T11:19:25.262Z,93341.03
2022-07-26T11:20:29.638Z,93337.16
2022-07-26T11:21:26.747Z,93342.56
2022-07-26T11:22:32.041Z,93317.34
2022-07-26T11:23:34.188Z,93335.22
2022-07-26T11:24:30.907Z,93327.06
2022-07-26T11:25:29.053Z,93327.31
2022-07-26T11:26:25.817Z,93312.59
2022-07-26T11:27:22.477Z,93316.97
2022-07-26T11:28:21.344Z,93324.16